Partly Cloudy Current Weather (METAR) For London Heathrow Airport

All times on the weather descriptions are local

Observed at 09:20 - (9 mins ago)

Partly Cloudy

13°C

Partly Cloudy
Clouds: Scattered Clouds at 1,100ft
Wind: 290° at 06 knots
Visibility: Greater than 10km
QNH: 1018
Dew Point: 11°C
Runway in Use: Landing: Runway , Take-Off: Runway

Sunrise Today: 06:14
Sunset Today: 19:47

Forecast Weather (TAF) For London Heathrow Airport

Issued at 01:00 - (28 days ago)


Runway in Use: Likely Runways 27L/R

Forecast valid until 01:00 on Wednesday

METAR/TAF RAW METAR / TAF

EGLL 020820Z 29006KT 9999 SCT011 13/11 Q1018 NOSIG

Weather Widget

Put weather from any of our airports on your website with our weather widget.

Find Another Search

Airport Search


Please Wait Please Wait - Loading
Close
Close

Login

Username:

Password:

Remember Me:

Remember me on this computer

Forgotten your password? Get a reset password sent to your registered e-mail address

Close

User Private Message

Subject:

Message: